Main page
Satellite images Climate Cyclones Lightning AirportsFAQ Languages Contact Newsletter About
Weather : Europe Africa North America South America Asia Australia-Oceania Others

, Nan, Nan Nakhon Airport

48331

latitude: , longitude: Thailand, elevation: 18-46N m


METAR: VTCN 270000Z VRB01KT 9999 BKN005 OVC022 24/24 Q1004